الصفحة الرئيسية
METAR-TAF:

METAR-TAF

مطار :

مطار انجمينا الدولي

انجمينا, تشاد

دائرة عرض: 12-08N, خط طول: 015-02E, ارتفاع: 295 متر

مراقبة الطقس الحالي

تاريخ ووقت الإصدار 40 دقيقة قبل الساعة 23:00UTC
ريح 4 عقدة من الشمال/الشمال الشرقي
درجة الحرارة 32°درجة مئوية
الرطوبة 14%
ضغط 1004 hPa
الرؤية: 6000 متر

METAR: FTTJ 212300Z 03004KT 6000 NSC 32/01 Q1004 NOSIG

زمن: 00:40 (23:40 UTC)

توقعات

تاريخ ووقت الإصدار 40 دقيقة قبل الساعة 23:00UTC
التوقعات صالحة من22 الساعة 00 UTC إلى 23 الساعة 06 UTC
ريح 6 عقدة من الشمال الشرقي
الرؤية: 7000 متر
مؤقت
من 22 الساعة 05 UTC إلى 22 الساعة 09 UTC
الرؤية: 4000 متر
غبار
مؤقت
من 22 الساعة 08 UTC إلى 22 الساعة 13 UTC
ريح 10 عقدة من الجنوب الشرقي
مؤقت
من 22 الساعة 15 UTC إلى 22 الساعة 20 UTC
الرؤية: 4000 متر
غبار,

TAF: FTTJ 212300Z 2200/2306 04006KT 7000 NSC TEMPO 2205/2209 4000 DU TEMPO 2208/2213 14010KT TEMPO 2215/2220 4000 DU

أرصاد الطقس والتوقعات من أكثر من 4000 مطار (تقارير الطقس للمطار METAR والتنبؤ بالطقس بالمطارTAF).

المحطات المتاحة هي النقط الصفراء والحمراء على الخريطة.

حرك المؤشر فوق النقطة لمعرفة اسم المحطة.

ثم انقر لمعرفة أرصاد وتوقعات الطقس.

لتغيير الخارطة: اضغط على الأزرار الخضراء مع رمز الصليب الأسود للتكبير. على الزر الأخضر مع شرطة للتصغير، أو على الأسهم الخضراء للخرائط المجاورة.


METAR-TAF: